Time;durP1;ratioP1;P1;durP2;ratioP2;P2;SDS_P1;SDS_P2;PMS_P1;PMS_P2;Temp;Humidity;BMP_temperature;BMP_pressure;BME280_temperature;BME280_humidity;BME280_pressure;Samples;Min_cycle;Max_cycle;Signal;HPM_P1;HPM_P2
2021/05/17 00:02:02;;;;;;;0.50;0.20;;;;;;;;;;5106220;28;20068;-65
2021/05/17 00:04:34;;;;;;;2.35;0.50;;;;;;;;;;5104953;28;20019;-65
2021/05/17 00:07:02;;;;;;;1.20;0.32;;;;;;;;;;5105385;28;20115;-65
2021/05/17 00:09:27;;;;;;;0.95;0.40;;;;;;;;;;5097945;28;20447;-65
2021/05/17 00:11:54;;;;;;;0.50;0.20;;;;;;;;;;5096318;28;20024;-65
2021/05/17 00:14:20;;;;;;;2.78;0.50;;;;;;;;;;5104210;28;20024;-65
2021/05/17 00:16:45;;;;;;;0.77;0.35;;;;;;;;;;5100925;28;20024;-65
2021/05/17 00:19:12;;;;;;;1.70;0.30;;;;;;;;;;5094106;28;20028;-65
2021/05/17 00:21:37;;;;;;;1.10;0.30;;;;;;;;;;5108474;28;20099;-65
2021/05/17 00:24:03;;;;;;;2.60;0.50;;;;;;;;;;5110403;28;20098;-65
2021/05/17 00:26:28;;;;;;;0.40;0.20;;;;;;;;;;5108162;28;20049;-65
2021/05/17 00:28:54;;;;;;;0.50;0.30;;;;;;;;;;5106515;28;20069;-65
2021/05/17 00:31:19;;;;;;;0.30;0.20;;;;;;;;;;5094354;28;20383;-66
2021/05/17 00:33:44;;;;;;;1.77;0.30;;;;;;;;;;5103757;28;20065;-65
2021/05/17 00:36:10;;;;;;;1.00;0.25;;;;;;;;;;5104404;28;20068;-65
2021/05/17 00:38:35;;;;;;;1.25;0.22;;;;;;;;;;5111113;28;20059;-65
2021/05/17 00:41:00;;;;;;;0.55;0.20;;;;;;;;;;5111689;28;20022;-65
2021/05/17 00:43:28;;;;;;;1.40;0.28;;;;;;;;;;5104959;28;20084;-65
2021/05/17 00:45:53;;;;;;;1.35;0.30;;;;;;;;;;5106408;28;20212;-65
2021/05/17 00:48:18;;;;;;;2.08;0.50;;;;;;;;;;5102339;28;20019;-65
2021/05/17 00:50:44;;;;;;;0.68;0.40;;;;;;;;;;5111651;28;20028;-65
2021/05/17 00:53:09;;;;;;;1.95;1.02;;;;;;;;;;5110321;28;20062;-65
2021/05/17 00:55:34;;;;;;;1.02;0.30;;;;;;;;;;5109401;28;20011;-65
2021/05/17 00:58:00;;;;;;;1.05;0.40;;;;;;;;;;5110746;28;20095;-65
2021/05/17 01:00:26;;;;;;;2.08;0.38;;;;;;;;;;5107012;28;20131;-65
2021/05/17 01:02:51;;;;;;;1.48;0.30;;;;;;;;;;5097404;28;20055;-65
2021/05/17 01:05:17;;;;;;;1.65;0.28;;;;;;;;;;5111497;28;20015;-65
2021/05/17 01:07:46;;;;;;;1.98;0.50;;;;;;;;;;5098006;28;20016;-64
2021/05/17 01:10:14;;;;;;;1.58;0.30;;;;;;;;;;5092644;28;20026;-65
2021/05/17 01:12:41;;;;;;;1.25;0.40;;;;;;;;;;5094694;28;20044;-65
2021/05/17 01:15:07;;;;;;;1.05;0.22;;;;;;;;;;5098133;28;20016;-65
2021/05/17 01:17:33;;;;;;;1.45;0.40;;;;;;;;;;5095170;28;20360;-65
2021/05/17 01:20:06;;;;;;;0.55;0.30;;;;;;;;;;5090316;28;20038;-65
2021/05/17 01:22:38;;;;;;;2.58;0.20;;;;;;;;;;5090247;28;20013;-65
2021/05/17 01:25:03;;;;;;;1.15;0.30;;;;;;;;;;5093745;28;20017;-65
2021/05/17 01:27:29;;;;;;;2.15;0.73;;;;;;;;;;5100644;28;20437;-65
2021/05/17 01:29:54;;;;;;;1.52;0.40;;;;;;;;;;5111848;28;20023;-65
2021/05/17 01:32:19;;;;;;;1.38;0.40;;;;;;;;;;5108830;28;20068;-65
2021/05/17 01:34:45;;;;;;;2.03;0.35;;;;;;;;;;5098686;28;20073;-65
2021/05/17 01:37:10;;;;;;;0.65;0.30;;;;;;;;;;5103975;28;20019;-65
2021/05/17 01:39:36;;;;;;;0.47;0.38;;;;;;;;;;5102655;28;20016;-65
2021/05/17 01:42:01;;;;;;;2.45;0.28;;;;;;;;;;5108555;28;20501;-65
2021/05/17 01:44:27;;;;;;;1.02;0.30;;;;;;;;;;5093299;28;20698;-65
2021/05/17 01:46:54;;;;;;;1.73;0.28;;;;;;;;;;5089143;28;20013;-65
2021/05/17 01:49:20;;;;;;;1.35;0.30;;;;;;;;;;5093634;28;20154;-65
2021/05/17 01:51:48;;;;;;;1.33;0.40;;;;;;;;;;5110255;28;20060;-65
2021/05/17 01:54:14;;;;;;;1.48;0.40;;;;;;;;;;5111946;28;20090;-65
2021/05/17 01:56:39;;;;;;;1.83;0.40;;;;;;;;;;5100930;28;20161;-65
2021/05/17 01:59:06;;;;;;;1.95;0.47;;;;;;;;;;5108392;28;20046;-65
2021/05/17 02:01:31;;;;;;;1.60;0.35;;;;;;;;;;5101015;28;20037;-65
2021/05/17 02:03:57;;;;;;;3.70;0.65;;;;;;;;;;5108539;28;20032;-65
2021/05/17 02:06:22;;;;;;;1.08;0.90;;;;;;;;;;5091205;28;20035;-65
2021/05/17 02:08:48;;;;;;;4.95;0.77;;;;;;;;;;5098960;28;20421;-65
2021/05/17 02:11:16;;;;;;;3.72;1.10;;;;;;;;;;5105407;28;20016;-65
2021/05/17 02:13:41;;;;;;;2.38;0.50;;;;;;;;;;5109165;28;20032;-65
2021/05/17 02:16:08;;;;;;;4.10;1.02;;;;;;;;;;5104777;28;20028;-65
2021/05/17 02:18:37;;;;;;;2.65;1.33;;;;;;;;;;5097617;28;20035;-65
2021/05/17 02:21:03;;;;;;;2.67;0.80;;;;;;;;;;5107549;28;20073;-65
2021/05/17 02:23:28;;;;;;;1.13;0.80;;;;;;;;;;5104798;28;20028;-65
2021/05/17 02:25:53;;;;;;;3.53;1.08;;;;;;;;;;5111123;28;20015;-65
2021/05/17 02:28:19;;;;;;;1.95;0.70;;;;;;;;;;5113770;28;20039;-64
2021/05/17 02:30:44;;;;;;;1.80;0.70;;;;;;;;;;5113774;28;20490;-65
2021/05/17 02:33:10;;;;;;;2.75;0.80;;;;;;;;;;5102424;28;20031;-64
2021/05/17 02:35:36;;;;;;;2.53;0.50;;;;;;;;;;5092927;28;20027;-65
2021/05/17 02:38:01;;;;;;;1.90;0.45;;;;;;;;;;5109875;28;20416;-64
2021/05/17 02:40:27;;;;;;;1.58;0.43;;;;;;;;;;5114737;28;20068;-64
2021/05/17 02:42:57;;;;;;;2.30;1.00;;;;;;;;;;5111887;28;20034;-64
2021/05/17 02:45:23;;;;;;;1.60;0.50;;;;;;;;;;5096766;28;20026;-64
2021/05/17 02:47:48;;;;;;;1.05;0.40;;;;;;;;;;5104006;28;20016;-64
2021/05/17 02:50:16;;;;;;;2.63;0.60;;;;;;;;;;5113589;28;20459;-64
2021/05/17 02:52:44;;;;;;;2.03;0.60;;;;;;;;;;5097807;28;20028;-64
2021/05/17 02:55:10;;;;;;;2.65;0.90;;;;;;;;;;5113793;28;20474;-64
2021/05/17 02:57:38;;;;;;;1.92;0.60;;;;;;;;;;5108231;28;20042;-64
2021/05/17 03:00:08;;;;;;;1.15;0.82;;;;;;;;;;5113370;28;20034;-64
2021/05/17 03:02:39;;;;;;;2.50;1.30;;;;;;;;;;5107408;27;20024;-64
2021/05/17 03:05:05;;;;;;;2.08;1.25;;;;;;;;;;5093934;28;20046;-64
2021/05/17 03:07:33;;;;;;;3.30;1.45;;;;;;;;;;5095469;28;20019;-64
2021/05/17 03:10:00;;;;;;;1.05;0.95;;;;;;;;;;5096938;28;20471;-64
2021/05/17 03:12:28;;;;;;;5.15;1.70;;;;;;;;;;5109216;28;20463;-64
2021/05/17 03:14:53;;;;;;;3.95;1.50;;;;;;;;;;5114181;28;20062;-64
2021/05/17 03:17:18;;;;;;;2.13;1.45;;;;;;;;;;5110707;28;20494;-64
2021/05/17 03:19:44;;;;;;;2.05;1.73;;;;;;;;;;5109173;28;20023;-64
2021/05/17 03:22:09;;;;;;;1.92;1.73;;;;;;;;;;5111714;28;20039;-64
2021/05/17 03:24:36;;;;;;;2.67;1.70;;;;;;;;;;5105458;28;20072;-64
2021/05/17 03:27:12;;;;;;;5.85;2.70;;;;;;;;;;5097912;28;20191;-64
2021/05/17 03:29:38;;;;;;;6.78;2.67;;;;;;;;;;5093654;28;20031;-64
2021/05/17 03:32:03;;;;;;;3.30;2.15;;;;;;;;;;5099139;28;20016;-64
2021/05/17 03:34:28;;;;;;;2.90;2.03;;;;;;;;;;5102785;28;20020;-64
2021/05/17 03:36:53;;;;;;;4.25;2.47;;;;;;;;;;5110551;28;20016;-64
2021/05/17 03:39:19;;;;;;;4.35;2.25;;;;;;;;;;5111627;28;20024;-64
2021/05/17 03:41:44;;;;;;;3.72;2.35;;;;;;;;;;5106505;28;20346;-64
2021/05/17 03:44:09;;;;;;;2.92;2.72;;;;;;;;;;5111247;28;20008;-64
2021/05/17 03:46:34;;;;;;;3.10;2.63;;;;;;;;;;5105073;28;20026;-64
2021/05/17 03:48:59;;;;;;;4.78;2.60;;;;;;;;;;5093158;28;20020;-64
2021/05/17 03:51:25;;;;;;;3.05;1.98;;;;;;;;;;5093168;28;20024;-64
2021/05/17 03:53:50;;;;;;;4.07;2.92;;;;;;;;;;5097923;28;20019;-64
2021/05/17 03:56:15;;;;;;;4.15;1.98;;;;;;;;;;5090174;28;20035;-64
2021/05/17 03:58:40;;;;;;;3.13;1.77;;;;;;;;;;5092151;28;20032;-64
2021/05/17 04:01:05;;;;;;;2.20;1.40;;;;;;;;;;5099134;28;20020;-64
2021/05/17 04:03:32;;;;;;;3.00;1.00;;;;;;;;;;5101576;28;20068;-64
2021/05/17 04:13:49;;;;;;;1.45;0.55;;;;;;;;;;5110739;28;20050;-64
2021/05/17 04:16:15;;;;;;;2.78;0.60;;;;;;;;;;5098917;28;20024;-64
2021/05/17 04:18:41;;;;;;;1.17;0.60;;;;;;;;;;5111785;28;20031;-64
2021/05/17 04:21:06;;;;;;;1.92;0.60;;;;;;;;;;5103724;28;20028;-65
2021/05/17 04:23:31;;;;;;;1.88;0.70;;;;;;;;;;5092200;28;20042;-65
2021/05/17 04:25:57;;;;;;;0.70;0.50;;;;;;;;;;5108636;28;20418;-65
2021/05/17 04:28:22;;;;;;;1.30;0.50;;;;;;;;;;5112000;28;20084;-65
2021/05/17 04:30:47;;;;;;;1.48;0.40;;;;;;;;;;5094010;28;20028;-64
2021/05/17 04:33:12;;;;;;;1.13;0.40;;;;;;;;;;5102459;28;20374;-65
2021/05/17 04:35:38;;;;;;;0.63;0.30;;;;;;;;;;5109804;28;20015;-64
2021/05/17 04:38:03;;;;;;;0.75;0.40;;;;;;;;;;5098710;28;20016;-64
2021/05/17 04:40:29;;;;;;;0.55;0.30;;;;;;;;;;5101914;28;20043;-65
2021/05/17 04:42:54;;;;;;;1.58;0.50;;;;;;;;;;5108960;28;20019;-65
2021/05/17 04:45:22;;;;;;;1.33;0.30;;;;;;;;;;5105027;28;20357;-65
2021/05/17 04:47:47;;;;;;;0.35;0.10;;;;;;;;;;5091509;28;20440;-65
2021/05/17 04:50:12;;;;;;;0.20;0.03;;;;;;;;;;5111546;28;20051;-65
2021/05/17 04:52:38;;;;;;;0.88;0.20;;;;;;;;;;5109896;28;20506;-65
2021/05/17 04:55:04;;;;;;;0.30;0.10;;;;;;;;;;5095402;28;20023;-65
2021/05/17 04:57:29;;;;;;;0.82;0.20;;;;;;;;;;5090343;28;20051;-65
2021/05/17 04:59:54;;;;;;;1.80;0.20;;;;;;;;;;5100452;28;20026;-65
2021/05/17 05:02:19;;;;;;;1.50;0.20;;;;;;;;;;5111439;28;20094;-65
2021/05/17 05:04:44;;;;;;;0.93;0.30;;;;;;;;;;5103774;28;20046;-65
2021/05/17 05:07:10;;;;;;;1.83;0.30;;;;;;;;;;5093639;28;20024;-65
2021/05/17 05:09:35;;;;;;;0.38;0.20;;;;;;;;;;5102874;28;20015;-65
2021/05/17 05:12:01;;;;;;;1.17;0.30;;;;;;;;;;5104642;28;20027;-65
2021/05/17 05:14:26;;;;;;;1.27;0.28;;;;;;;;;;5111566;28;20027;-65
2021/05/17 05:16:51;;;;;;;0.68;0.20;;;;;;;;;;5107706;28;20391;-65
2021/05/17 05:19:17;;;;;;;0.55;0.10;;;;;;;;;;5101202;28;20044;-65
2021/05/17 05:21:42;;;;;;;0.65;0.17;;;;;;;;;;5090482;28;20182;-65
2021/05/17 05:24:07;;;;;;;0.90;0.20;;;;;;;;;;5097061;28;20382;-65
2021/05/17 05:31:54;;;;;;;0.25;0.10;;;;;;;;;;5085223;28;20043;-65
2021/05/17 05:34:19;;;;;;;0.52;0.13;;;;;;;;;;5102643;28;20072;-65
2021/05/17 05:36:44;;;;;;;0.50;0.10;;;;;;;;;;5090081;28;20475;-65
2021/05/17 05:39:10;;;;;;;0.38;0.10;;;;;;;;;;5090641;28;20020;-65
2021/05/17 05:41:35;;;;;;;0.55;0.10;;;;;;;;;;5100042;28;20016;-65
2021/05/17 05:44:00;;;;;;;0.55;0.20;;;;;;;;;;5113130;28;20035;-65
2021/05/17 05:46:26;;;;;;;0.30;0.10;;;;;;;;;;5108530;28;20375;-65
2021/05/17 05:48:51;;;;;;;0.60;0.20;;;;;;;;;;5112176;28;20134;-65
2021/05/17 05:51:22;;;;;;;1.80;0.20;;;;;;;;;;5107280;28;20024;-65
2021/05/17 05:53:47;;;;;;;0.43;0.20;;;;;;;;;;5114354;28;20020;-65
2021/05/17 05:56:12;;;;;;;0.55;0.13;;;;;;;;;;5111966;28;20153;-65
2021/05/17 05:58:38;;;;;;;0.50;0.20;;;;;;;;;;5098785;28;20019;-65
2021/05/17 06:01:04;;;;;;;0.85;0.10;;;;;;;;;;5104857;28;20028;-65
2021/05/17 06:03:29;;;;;;;1.08;0.13;;;;;;;;;;5112588;28;20319;-65
2021/05/17 06:05:54;;;;;;;2.92;0.20;;;;;;;;;;5093220;28;20556;-65
2021/05/17 06:08:19;;;;;;;0.47;0.10;;;;;;;;;;5109963;28;20024;-65
2021/05/17 06:10:45;;;;;;;0.88;0.10;;;;;;;;;;5101185;28;20031;-65
2021/05/17 06:13:10;;;;;;;0.30;0.10;;;;;;;;;;5099791;28;20043;-65
2021/05/17 06:15:39;;;;;;;0.55;0.10;;;;;;;;;;5094394;28;20072;-65
2021/05/17 06:18:05;;;;;;;1.95;0.10;;;;;;;;;;5110313;28;20018;-65
2021/05/17 06:20:30;;;;;;;0.50;0.10;;;;;;;;;;5114126;28;20404;-65
2021/05/17 06:22:57;;;;;;;0.17;0.10;;;;;;;;;;5094014;28;20036;-65
2021/05/17 06:25:22;;;;;;;0.43;0.10;;;;;;;;;;5109311;28;20027;-65
2021/05/17 06:27:47;;;;;;;0.20;0.10;;;;;;;;;;5100418;28;20522;-65
2021/05/17 06:30:13;;;;;;;0.60;0.05;;;;;;;;;;5094392;28;20055;-65
2021/05/17 06:32:39;;;;;;;1.27;0.10;;;;;;;;;;5104354;28;20023;-64
2021/05/17 06:35:06;;;;;;;0.90;0.10;;;;;;;;;;5092915;28;20081;-63
2021/05/17 06:37:31;;;;;;;0.55;0.10;;;;;;;;;;5089803;28;20032;-63
2021/05/17 06:39:56;;;;;;;0.57;0.10;;;;;;;;;;5106867;28;20367;-63
2021/05/17 06:42:22;;;;;;;0.90;0.20;;;;;;;;;;5094746;28;20379;-63
2021/05/17 06:44:47;;;;;;;0.40;0.10;;;;;;;;;;5094166;28;20111;-64
2021/05/17 06:47:13;;;;;;;3.45;0.20;;;;;;;;;;5103894;28;20462;-64
2021/05/17 06:49:38;;;;;;;0.45;0.20;;;;;;;;;;5094104;28;20028;-64
2021/05/17 06:52:04;;;;;;;0.90;0.10;;;;;;;;;;5112049;28;20031;-64
2021/05/17 06:54:30;;;;;;;0.75;0.20;;;;;;;;;;5098032;28;20026;-63
2021/05/17 06:59:22;;;;;;;1.58;0.10;;;;;;;;;;5092946;28;20060;-64
2021/05/17 07:01:48;;;;;;;1.10;0.10;;;;;;;;;;5099849;28;20023;-63
2021/05/17 07:04:16;;;;;;;1.10;0.10;;;;;;;;;;5101081;28;20027;-64
2021/05/17 07:06:45;;;;;;;0.30;0.10;;;;;;;;;;5099512;28;20464;-64
2021/05/17 07:12:03;;;;;;;0.68;0.20;;;;;;;;;;5104732;28;20550;-64
2021/05/17 07:14:28;;;;;;;0.20;0.00;;;;;;;;;;5106574;28;20023;-64
2021/05/17 07:16:53;;;;;;;0.20;0.00;;;;;;;;;;5096469;28;20038;-64
2021/05/17 07:19:19;;;;;;;0.05;0.00;;;;;;;;;;5102710;28;20489;-64
2021/05/17 07:24:28;;;;;;;1.13;0.35;;;;;;;;;;5100627;28;20042;-63
2021/05/17 07:26:53;;;;;;;0.38;0.10;;;;;;;;;;5090323;28;20044;-63
2021/05/17 07:29:20;;;;;;;0.38;0.00;;;;;;;;;;5098680;28;20032;-63
2021/05/17 07:31:45;;;;;;;0.10;0.08;;;;;;;;;;5105803;28;20016;-62
2021/05/17 07:34:11;;;;;;;0.40;0.17;;;;;;;;;;5111977;28;20077;-63
2021/05/17 07:36:36;;;;;;;1.15;0.10;;;;;;;;;;5095646;28;20382;-62
2021/05/17 07:39:02;;;;;;;0.45;0.10;;;;;;;;;;5101863;28;20450;-62
2021/05/17 07:41:27;;;;;;;1.17;0.10;;;;;;;;;;5101940;28;20004;-62
2021/05/17 07:43:53;;;;;;;1.73;0.17;;;;;;;;;;5099756;28;20020;-62
2021/05/17 07:46:18;;;;;;;0.68;0.10;;;;;;;;;;5088471;28;20029;-63
2021/05/17 07:51:28;;;;;;;0.82;0.10;;;;;;;;;;5101400;28;20031;-62
2021/05/17 07:53:53;;;;;;;2.03;0.10;;;;;;;;;;5104440;28;20427;-62
2021/05/17 07:56:18;;;;;;;2.03;0.20;;;;;;;;;;5110257;28;20054;-63
2021/05/17 07:58:44;;;;;;;0.50;0.17;;;;;;;;;;5112391;28;20020;-63
2021/05/17 08:01:11;;;;;;;0.90;0.10;;;;;;;;;;5111096;28;20008;-62
2021/05/17 08:03:36;;;;;;;0.10;0.00;;;;;;;;;;5110145;28;20020;-62
2021/05/17 08:06:01;;;;;;;0.75;0.00;;;;;;;;;;5107242;28;20031;-63
2021/05/17 08:08:27;;;;;;;0.25;0.10;;;;;;;;;;5094599;28;20043;-62
2021/05/17 08:10:52;;;;;;;0.90;0.52;;;;;;;;;;5097974;28;20403;-62
2021/05/17 08:13:17;;;;;;;0.43;0.00;;;;;;;;;;5102297;28;20497;-63
2021/05/17 08:15:42;;;;;;;0.55;0.20;;;;;;;;;;5091235;28;20082;-63
2021/05/17 08:18:08;;;;;;;0.65;0.10;;;;;;;;;;5092303;28;20506;-63
2021/05/17 08:20:33;;;;;;;0.40;0.03;;;;;;;;;;5095401;28;20475;-63
2021/05/17 08:23:00;;;;;;;1.75;0.10;;;;;;;;;;5091664;28;20054;-63
2021/05/17 08:25:25;;;;;;;0.95;0.55;;;;;;;;;;5105587;28;20020;-63
2021/05/17 08:27:50;;;;;;;4.97;0.20;;;;;;;;;;5109496;28;20040;-63
2021/05/17 08:30:16;;;;;;;0.65;0.10;;;;;;;;;;5110248;28;20038;-63
2021/05/17 08:32:41;;;;;;;1.48;0.40;;;;;;;;;;5110656;28;20046;-63
2021/05/17 08:35:06;;;;;;;1.27;0.20;;;;;;;;;;5104617;28;20095;-63
2021/05/17 08:37:32;;;;;;;1.33;0.30;;;;;;;;;;5099206;28;20098;-63
2021/05/17 08:39:57;;;;;;;1.23;0.20;;;;;;;;;;5094430;28;20111;-63
2021/05/17 08:42:23;;;;;;;0.30;0.10;;;;;;;;;;5091015;28;20012;-63
2021/05/17 08:44:50;;;;;;;0.43;0.10;;;;;;;;;;5090789;28;20023;-63
2021/05/17 08:47:17;;;;;;;0.63;0.40;;;;;;;;;;5088463;28;20015;-63
2021/05/17 08:49:43;;;;;;;1.42;0.40;;;;;;;;;;5094799;28;20147;-63
2021/05/17 08:52:08;;;;;;;0.60;0.22;;;;;;;;;;5108835;28;20482;-63
2021/05/17 08:54:33;;;;;;;0.90;0.10;;;;;;;;;;5112234;28;20015;-63
2021/05/17 08:56:58;;;;;;;1.20;0.10;;;;;;;;;;5102186;28;20069;-63
2021/05/17 08:59:24;;;;;;;0.10;0.00;;;;;;;;;;5091700;28;20028;-63
2021/05/17 09:01:49;;;;;;;1.38;0.20;;;;;;;;;;5102935;28;20051;-63
2021/05/17 09:04:16;;;;;;;0.50;0.20;;;;;;;;;;5099466;28;20020;-63
2021/05/17 09:06:48;;;;;;;0.05;0.00;;;;;;;;;;5090732;28;20479;-63
2021/05/17 09:09:23;;;;;;;0.47;0.20;;;;;;;;;;5094752;28;20026;-63
2021/05/17 09:11:49;;;;;;;1.23;0.30;;;;;;;;;;5105540;28;20083;-63
2021/05/17 09:14:14;;;;;;;0.65;0.13;;;;;;;;;;5102408;28;20032;-63
2021/05/17 09:16:46;;;;;;;0.75;0.10;;;;;;;;;;5100061;28;20026;-62
2021/05/17 09:19:12;;;;;;;1.90;0.20;;;;;;;;;;5091623;28;20145;-63
2021/05/17 09:21:56;;;;;;;0.38;0.10;;;;;;;;;;5090328;28;20394;-63
2021/05/17 09:24:33;;;;;;;0.47;0.10;;;;;;;;;;5097696;28;20087;-63
2021/05/17 09:26:59;;;;;;;0.73;0.10;;;;;;;;;;5090030;28;20067;-63
2021/05/17 09:29:24;;;;;;;2.65;0.10;;;;;;;;;;5101852;28;20386;-63
2021/05/17 09:31:49;;;;;;;0.95;0.10;;;;;;;;;;5111738;28;20052;-63
2021/05/17 09:34:14;;;;;;;0.40;0.10;;;;;;;;;;5105912;28;20072;-63
2021/05/17 09:36:40;;;;;;;1.13;0.10;;;;;;;;;;5104095;28;20030;-63
2021/05/17 09:39:06;;;;;;;0.30;0.10;;;;;;;;;;5111773;28;20054;-63
2021/05/17 09:41:38;;;;;;;0.77;0.10;;;;;;;;;;5091204;28;20024;-63
2021/05/17 09:44:03;;;;;;;0.65;0.22;;;;;;;;;;5103365;28;20095;-63
2021/05/17 09:46:29;;;;;;;0.45;0.10;;;;;;;;;;5107180;28;20497;-63
2021/05/17 09:48:54;;;;;;;1.33;0.43;;;;;;;;;;5111707;28;20027;-63
2021/05/17 09:51:20;;;;;;;1.02;0.10;;;;;;;;;;5105903;28;20104;-63
2021/05/17 09:53:46;;;;;;;1.00;0.25;;;;;;;;;;5092875;28;20016;-63
2021/05/17 09:56:16;;;;;;;1.00;0.20;;;;;;;;;;5088376;28;20027;-63
2021/05/17 09:58:41;;;;;;;1.77;0.10;;;;;;;;;;5090905;28;20024;-63
2021/05/17 10:01:11;;;;;;;0.80;0.10;;;;;;;;;;5096592;28;20276;-63
2021/05/17 10:03:38;;;;;;;1.10;0.10;;;;;;;;;;5111432;28;20015;-63
2021/05/17 10:06:03;;;;;;;0.30;0.10;;;;;;;;;;5098150;28;20511;-63
2021/05/17 10:08:28;;;;;;;1.27;0.10;;;;;;;;;;5108718;28;20034;-63
2021/05/17 10:10:54;;;;;;;0.10;0.00;;;;;;;;;;5101234;28;20107;-63
2021/05/17 10:13:19;;;;;;;1.08;0.10;;;;;;;;;;5103545;28;20138;-63
2021/05/17 10:15:47;;;;;;;1.27;0.10;;;;;;;;;;5108201;28;20058;-63
2021/05/17 10:18:13;;;;;;;0.10;0.03;;;;;;;;;;5110265;28;20068;-63
2021/05/17 10:20:39;;;;;;;0.32;0.05;;;;;;;;;;5109859;28;20069;-64
2021/05/17 10:23:04;;;;;;;1.48;0.10;;;;;;;;;;5108079;28;20425;-64
2021/05/17 10:25:31;;;;;;;1.05;0.10;;;;;;;;;;5098775;28;20016;-64
2021/05/17 10:27:58;;;;;;;0.30;0.10;;;;;;;;;;5109508;28;20047;-63
2021/05/17 10:30:25;;;;;;;0.10;0.00;;;;;;;;;;5113795;28;20023;-63
2021/05/17 10:32:53;;;;;;;0.10;0.00;;;;;;;;;;5115177;28;20082;-63
2021/05/17 10:35:22;;;;;;;0.57;0.10;;;;;;;;;;5110288;28;20020;-63
2021/05/17 10:37:48;;;;;;;0.20;0.00;;;;;;;;;;5111731;28;20023;-63
2021/05/17 10:40:31;;;;;;;0.00;0.00;;;;;;;;;;5110939;28;20031;-63
2021/05/17 10:43:06;;;;;;;0.20;0.00;;;;;;;;;;5094106;28;20024;-62
2021/05/17 10:48:21;;;;;;;0.13;0.00;;;;;;;;;;5114681;28;20439;-63
2021/05/17 10:50:48;;;;;;;0.88;0.10;;;;;;;;;;5108456;28;20016;-63
2021/05/17 10:53:32;;;;;;;0.98;0.00;;;;;;;;;;5097137;28;20016;-65
2021/05/17 10:55:57;;;;;;;0.82;0.10;;;;;;;;;;5104885;28;20527;-65
2021/05/17 11:00:22;;;;;;;0.57;0.05;;;;;;;;;;5101592;28;20024;-64
2021/05/17 11:01:27;;;;;;;1.45;0.20;;;;;;;;;;5101778;28;20028;-64
2021/05/17 11:04:11;;;;;;;2.75;0.20;;;;;;;;;;5104719;28;20465;-64
2021/05/17 11:06:39;;;;;;;1.50;0.05;;;;;;;;;;5108893;28;20022;-62
2021/05/17 11:09:07;;;;;;;0.20;0.00;;;;;;;;;;5096362;28;20031;-62
2021/05/17 11:11:32;;;;;;;0.50;0.08;;;;;;;;;;5102912;28;20087;-63
2021/05/17 11:14:16;;;;;;;0.85;0.10;;;;;;;;;;5112662;28;20023;-64
2021/05/17 11:16:57;;;;;;;0.60;0.10;;;;;;;;;;5102902;28;20046;-63
2021/05/17 11:19:22;;;;;;;1.23;0.00;;;;;;;;;;5113594;28;20072;-66
2021/05/17 11:21:57;;;;;;;0.65;0.10;;;;;;;;;;5105726;28;20016;-65
2021/05/17 11:24:24;;;;;;;1.15;0.00;;;;;;;;;;5093752;28;20093;-65
2021/05/17 11:26:51;;;;;;;0.88;0.10;;;;;;;;;;5109527;28;20036;-65
2021/05/17 11:29:27;;;;;;;0.63;0.10;;;;;;;;;;5108226;28;20470;-65
2021/05/17 11:32:06;;;;;;;0.63;0.10;;;;;;;;;;5093452;28;20054;-64
2021/05/17 11:34:32;;;;;;;1.08;0.10;;;;;;;;;;5111922;28;20497;-64
2021/05/17 11:37:10;;;;;;;1.33;0.10;;;;;;;;;;5109731;28;20024;-65
2021/05/17 11:39:37;;;;;;;0.05;0.00;;;;;;;;;;5112409;28;20506;-65
2021/05/17 11:42:04;;;;;;;0.38;0.10;;;;;;;;;;5107478;28;20054;-64
2021/05/17 11:44:37;;;;;;;0.55;0.10;;;;;;;;;;5106001;28;20016;-67
2021/05/17 11:47:06;;;;;;;0.47;0.20;;;;;;;;;;5098973;28;20494;-64
2021/05/17 11:49:33;;;;;;;0.57;0.10;;;;;;;;;;5107939;28;20020;-63
2021/05/17 11:51:59;;;;;;;1.10;0.00;;;;;;;;;;5110847;28;20034;-63
2021/05/17 11:54:26;;;;;;;0.30;0.20;;;;;;;;;;5095335;28;20016;-64
2021/05/17 11:56:55;;;;;;;0.22;0.10;;;;;;;;;;5089367;28;20024;-64
2021/05/17 11:59:22;;;;;;;0.73;0.20;;;;;;;;;;5107217;28;20379;-66
2021/05/17 12:01:48;;;;;;;1.17;0.20;;;;;;;;;;5102734;28;20077;-64
2021/05/17 12:04:15;;;;;;;0.60;0.00;;;;;;;;;;5098368;28;20028;-64
2021/05/17 12:06:44;;;;;;;0.52;0.10;;;;;;;;;;5100414;28;20022;-64
2021/05/17 12:09:09;;;;;;;0.50;0.20;;;;;;;;;;5103349;28;20466;-65
2021/05/17 12:11:34;;;;;;;0.82;0.10;;;;;;;;;;5105091;28;20035;-67
2021/05/17 12:14:06;;;;;;;0.35;0.00;;;;;;;;;;5111818;28;20497;-66
2021/05/17 12:16:31;;;;;;;0.25;0.03;;;;;;;;;;5096452;28;20038;-65
2021/05/17 12:19:00;;;;;;;0.60;0.22;;;;;;;;;;5099079;28;20020;-64
2021/05/17 12:21:32;;;;;;;0.25;0.05;;;;;;;;;;5096848;28;20544;-67
2021/05/17 12:23:58;;;;;;;1.05;0.00;;;;;;;;;;5103221;28;20475;-65
2021/05/17 12:26:23;;;;;;;1.15;0.00;;;;;;;;;;5098086;28;20016;-68
2021/05/17 12:28:55;;;;;;;0.28;0.00;;;;;;;;;;5104951;28;20542;-64
2021/05/17 12:31:24;;;;;;;0.10;0.00;;;;;;;;;;5105242;28;20011;-66
2021/05/17 12:33:49;;;;;;;0.50;0.30;;;;;;;;;;5103644;28;20012;-67
2021/05/17 12:36:15;;;;;;;0.30;0.00;;;;;;;;;;5095606;28;20367;-68
2021/05/17 12:38:44;;;;;;;0.55;0.10;;;;;;;;;;5101126;28;20481;-65
2021/05/17 12:41:09;;;;;;;2.08;0.22;;;;;;;;;;5095967;28;20028;-65
2021/05/17 12:43:35;;;;;;;0.70;0.10;;;;;;;;;;5103457;28;20044;-62
2021/05/17 12:46:02;;;;;;;0.85;0.00;;;;;;;;;;5103154;28;20066;-64
2021/05/17 12:48:40;;;;;;;0.10;0.00;;;;;;;;;;5109367;28;20077;-64
2021/05/17 12:51:26;;;;;;;0.57;0.00;;;;;;;;;;5102521;28;20044;-65
2021/05/17 12:53:51;;;;;;;;;;;;;;;;;;5099722;28;20034;-66
2021/05/17 12:56:27;;;;;;;0.13;0.10;;;;;;;;;;5086767;28;19908;-64
2021/05/17 12:58:52;;;;;;;1.45;0.10;;;;;;;;;;5091438;28;20052;-66
2021/05/17 13:01:20;;;;;;;0.17;0.08;;;;;;;;;;5096979;28;20104;-65
2021/05/17 13:03:55;;;;;;;0.13;0.00;;;;;;;;;;5104225;28;20016;-64
2021/05/17 13:06:22;;;;;;;1.13;0.10;;;;;;;;;;5099998;28;20026;-65
2021/05/17 13:08:50;;;;;;;0.10;0.00;;;;;;;;;;5106033;28;20293;-64
2021/05/17 13:11:22;;;;;;;0.30;0.10;;;;;;;;;;5100991;28;20132;-64
2021/05/17 13:13:47;;;;;;;0.22;0.10;;;;;;;;;;5105186;28;20383;-66
2021/05/17 13:16:16;;;;;;;0.43;0.10;;;;;;;;;;5094006;28;20020;-65
2021/05/17 13:19:31;;;;;;;1.27;0.20;;;;;;;;;;5104707;28;20034;-64
2021/05/17 13:22:12;;;;;;;1.48;0.20;;;;;;;;;;5092088;28;20012;-65
2021/05/17 13:30:26;;;;;;;0.30;0.10;;;;;;;;;;5109343;28;20111;-65
2021/05/17 13:32:51;;;;;;;0.68;0.10;;;;;;;;;;5105865;28;20019;-65
2021/05/17 13:35:17;;;;;;;0.10;0.10;;;;;;;;;;5100384;28;20030;-65
2021/05/17 13:37:42;;;;;;;0.13;0.03;;;;;;;;;;5103940;28;20538;-66
2021/05/17 13:40:09;;;;;;;0.20;0.00;;;;;;;;;;5104840;28;20073;-65
2021/05/17 13:42:34;;;;;;;0.30;0.10;;;;;;;;;;5110579;28;20586;-66
2021/05/17 13:44:59;;;;;;;2.22;0.00;;;;;;;;;;5111521;28;20026;-66
2021/05/17 13:47:24;;;;;;;0.10;0.00;;;;;;;;;;5106953;28;20024;-66
2021/05/17 13:49:50;;;;;;;2.35;0.10;;;;;;;;;;5111912;28;20019;-66
2021/05/17 13:52:15;;;;;;;0.10;0.00;;;;;;;;;;5093171;28;20023;-66
2021/05/17 13:54:40;;;;;;;0.82;0.17;;;;;;;;;;5097652;28;20478;-66
2021/05/17 13:57:05;;;;;;;0.20;0.10;;;;;;;;;;5094131;28;20386;-64
2021/05/17 13:59:31;;;;;;;0.10;0.10;;;;;;;;;;5095921;28;20520;-64
2021/05/17 14:01:56;;;;;;;0.10;0.00;;;;;;;;;;5098354;28;20019;-64
2021/05/17 14:04:22;;;;;;;0.50;0.00;;;;;;;;;;5100816;28;20074;-64
2021/05/17 14:06:47;;;;;;;0.20;0.03;;;;;;;;;;5102946;28;20016;-64
2021/05/17 14:09:14;;;;;;;0.20;0.05;;;;;;;;;;5113078;28;20388;-65
2021/05/17 14:11:40;;;;;;;0.30;0.10;;;;;;;;;;5103208;28;20470;-64
2021/05/17 14:14:05;;;;;;;0.28;0.00;;;;;;;;;;5099363;28;20023;-64
2021/05/17 14:16:30;;;;;;;0.60;0.10;;;;;;;;;;5093073;28;20032;-64
2021/05/17 14:18:56;;;;;;;0.80;0.00;;;;;;;;;;5097015;28;20032;-65
2021/05/17 14:21:21;;;;;;;0.10;0.00;;;;;;;;;;5099766;28;20262;-65
2021/05/17 14:23:47;;;;;;;0.00;0.00;;;;;;;;;;5095358;28;20016;-65
2021/05/17 14:26:12;;;;;;;0.20;0.00;;;;;;;;;;5093578;28;20503;-65
2021/05/17 14:28:40;;;;;;;0.10;0.00;;;;;;;;;;5093714;28;20131;-66
2021/05/17 14:31:06;;;;;;;0.20;0.10;;;;;;;;;;5097001;28;20030;-66
2021/05/17 14:33:31;;;;;;;0.35;0.10;;;;;;;;;;5103050;28;20021;-65
2021/05/17 14:35:56;;;;;;;2.28;0.10;;;;;;;;;;5100859;28;20016;-65
2021/05/17 14:38:21;;;;;;;1.48;0.08;;;;;;;;;;5093320;28;20035;-65
2021/05/17 14:40:47;;;;;;;0.77;0.10;;;;;;;;;;5094289;28;20459;-66
2021/05/17 14:43:12;;;;;;;0.55;0.10;;;;;;;;;;5100583;28;20451;-66
2021/05/17 14:45:37;;;;;;;4.55;0.20;;;;;;;;;;5100798;28;20030;-63
2021/05/17 14:48:02;;;;;;;0.10;0.00;;;;;;;;;;5094357;28;20114;-64
2021/05/17 14:50:28;;;;;;;1.33;0.10;;;;;;;;;;5105380;28;20341;-63
2021/05/17 14:52:53;;;;;;;0.10;0.03;;;;;;;;;;5094097;28;20024;-63
2021/05/17 14:55:19;;;;;;;0.10;0.00;;;;;;;;;;5103022;28;20028;-63
2021/05/17 14:57:44;;;;;;;0.10;0.10;;;;;;;;;;5096291;28;20092;-64
2021/05/17 15:00:13;;;;;;;0.77;0.00;;;;;;;;;;5096660;27;20118;-64
2021/05/17 15:02:38;;;;;;;0.95;0.10;;;;;;;;;;5108025;28;20261;-61
2021/05/17 15:05:04;;;;;;;0.73;0.00;;;;;;;;;;5103707;28;20085;-63
2021/05/17 15:07:29;;;;;;;0.55;0.10;;;;;;;;;;5105855;28;20254;-62
2021/05/17 15:09:55;;;;;;;0.93;0.00;;;;;;;;;;5103223;27;20009;-64
2021/05/17 15:12:20;;;;;;;0.08;0.00;;;;;;;;;;5107925;28;20258;-64
2021/05/17 15:14:46;;;;;;;0.10;0.00;;;;;;;;;;5107860;28;20066;-64